createdAt,value
2018-08-16T00:01:37.843Z,101245.17
2018-08-16T00:04:07.647Z,101236.45
2018-08-16T00:06:37.405Z,101238.62
2018-08-16T00:09:08.807Z,101239.92
2018-08-16T00:11:38.621Z,101238.17
2018-08-16T00:14:08.333Z,101236.45
2018-08-16T00:16:38.062Z,101237.31
2018-08-16T00:19:07.811Z,101239.47
2018-08-16T00:21:37.541Z,101239.91
2018-08-16T00:24:07.545Z,101237.72
2018-08-16T00:26:37.422Z,101236.39
2018-08-16T00:29:07.186Z,101234.66
2018-08-16T00:31:36.891Z,101234.63
2018-08-16T00:34:06.804Z,101228.97
2018-08-16T00:36:37.088Z,101230.27
2018-08-16T00:39:09.087Z,101236.82
2018-08-16T00:41:45.340Z,101230.27
2018-08-16T00:44:15.036Z,101237.23
2018-08-16T00:46:44.932Z,101235.52
2018-08-16T00:49:14.801Z,101233.32
2018-08-16T00:51:44.512Z,101238.50
2018-08-16T00:54:14.156Z,101238.06
2018-08-16T00:56:43.780Z,101232.84
2018-08-16T00:59:13.536Z,101235.88
2018-08-16T01:01:43.239Z,101236.31
2018-08-16T01:04:13.117Z,101230.63
2018-08-16T01:06:43.635Z,101233.67
2018-08-16T01:09:13.309Z,101225.84
2018-08-16T01:11:43.009Z,101223.23
2018-08-16T01:14:12.810Z,101224.08
2018-08-16T01:16:42.481Z,101225.39
2018-08-16T01:19:12.230Z,101223.66
2018-08-16T01:21:41.941Z,101221.48
2018-08-16T01:24:11.684Z,101223.66
2018-08-16T01:26:41.329Z,101228.03
2018-08-16T01:29:11.221Z,101226.70
2018-08-16T01:31:40.958Z,101221.88
2018-08-16T01:34:10.637Z,101220.11
2018-08-16T01:36:40.328Z,101221.38
2018-08-16T01:39:10.821Z,101217.02
2018-08-16T01:41:40.753Z,101218.33
2018-08-16T01:44:10.454Z,101217.88
2018-08-16T01:46:40.256Z,101212.20
2018-08-16T01:49:34.112Z,101210.00
2018-08-16T01:52:03.906Z,101212.64
2018-08-16T01:54:34.886Z,101209.11
2018-08-16T01:57:04.836Z,101209.09
2018-08-16T01:59:34.609Z,101213.48
2018-08-16T02:02:04.392Z,101216.09
2018-08-16T02:04:34.050Z,101214.32
2018-08-16T02:07:03.873Z,101210.39
2018-08-16T02:09:33.680Z,101196.03
2018-08-16T02:12:03.430Z,101199.08
2018-08-16T02:14:33.158Z,101202.99
2018-08-16T02:17:02.840Z,101202.99
2018-08-16T02:19:32.549Z,101202.97
2018-08-16T02:22:02.247Z,101197.72
2018-08-16T02:24:31.981Z,101200.75
2018-08-16T02:27:01.768Z,101197.70
2018-08-16T02:29:31.529Z,101199.00
2018-08-16T02:32:01.370Z,101198.94
2018-08-16T02:34:30.984Z,101194.56
2018-08-16T02:38:03.906Z,101207.64
2018-08-16T02:40:33.585Z,101201.52
2018-08-16T02:43:03.314Z,101193.22
2018-08-16T02:45:32.969Z,101192.32
2018-08-16T02:48:02.808Z,101190.58
2018-08-16T02:50:32.573Z,101188.81
2018-08-16T02:53:02.282Z,101187.50
2018-08-16T02:55:32.003Z,101175.75
2018-08-16T02:58:01.748Z,101170.49
2018-08-16T03:00:31.590Z,101174.42
2018-08-16T03:03:01.324Z,101172.21
2018-08-16T03:05:31.003Z,101176.16
2018-08-16T03:08:00.706Z,101175.30
2018-08-16T03:10:30.452Z,101171.38
2018-08-16T03:13:00.313Z,101173.09
2018-08-16T03:15:31.158Z,101170.10
2018-08-16T03:18:00.990Z,101158.30
2018-08-16T03:20:30.646Z,101154.79
2018-08-16T03:23:00.313Z,101147.83
2018-08-16T03:25:30.065Z,101146.99
2018-08-16T03:27:59.741Z,101150.06
2018-08-16T03:30:29.498Z,101140.50
2018-08-16T03:32:59.277Z,101141.32
2018-08-16T03:35:29.061Z,101141.72
2018-08-16T03:37:58.957Z,101139.50
2018-08-16T03:40:28.666Z,101132.97
2018-08-16T03:42:58.434Z,101133.77
2018-08-16T03:45:28.154Z,101140.70
2018-08-16T03:47:57.795Z,101140.68
2018-08-16T03:50:27.596Z,101134.15
2018-08-16T03:52:57.328Z,101132.36
2018-08-16T03:55:27.029Z,101131.92
2018-08-16T03:57:56.734Z,101128.42
2018-08-16T04:00:26.397Z,101127.52
2018-08-16T04:02:56.114Z,101124.05
2018-08-16T04:05:25.948Z,101130.57
2018-08-16T04:07:55.729Z,101129.30
2018-08-16T04:10:25.422Z,101129.30
2018-08-16T04:12:55.089Z,101134.92
2018-08-16T04:15:24.777Z,101141.02
2018-08-16T04:17:54.607Z,101137.08
2018-08-16T04:20:24.258Z,101139.66
2018-08-16T04:22:54.141Z,101140.06
2018-08-16T04:25:23.838Z,101143.12
2018-08-16T04:27:53.574Z,101143.12
2018-08-16T04:30:23.417Z,101142.34
2018-08-16T04:32:53.082Z,101144.61
2018-08-16T04:35:22.935Z,101145.91
2018-08-16T04:37:52.581Z,101144.11
2018-08-16T04:43:02.756Z,101155.87
2018-08-16T04:45:32.622Z,101152.39
2018-08-16T04:48:02.486Z,101153.72
2018-08-16T04:50:32.214Z,101152.91
2018-08-16T04:53:01.971Z,101150.29
2018-08-16T04:55:31.687Z,101145.55
2018-08-16T04:58:01.400Z,101142.55
2018-08-16T05:00:31.125Z,101145.22
2018-08-16T05:03:00.825Z,101141.75
2018-08-16T05:05:30.459Z,101147.05
2018-08-16T05:08:00.241Z,101142.70
2018-08-16T05:10:29.869Z,101143.59
2018-08-16T05:12:59.726Z,101146.23
2018-08-16T05:15:29.489Z,101149.75
2018-08-16T05:17:59.246Z,101150.25
2018-08-16T05:20:28.989Z,101150.73
2018-08-16T05:22:58.725Z,101148.19
2018-08-16T05:25:28.457Z,101143.44
2018-08-16T05:27:58.161Z,101141.23
2018-08-16T05:30:27.865Z,101143.86
2018-08-16T05:32:57.559Z,101145.15
2018-08-16T05:35:27.318Z,101140.74
2018-08-16T05:37:57.163Z,101141.61
2018-08-16T05:40:26.983Z,101141.57
2018-08-16T05:42:56.858Z,101137.63
2018-08-16T05:45:26.631Z,101140.16
2018-08-16T05:47:56.314Z,101143.64
2018-08-16T05:50:26.072Z,101144.04
2018-08-16T05:52:55.832Z,101142.23
2018-08-16T05:55:25.675Z,101140.82
2018-08-16T05:57:55.342Z,101134.18
2018-08-16T06:00:25.041Z,101136.78
2018-08-16T06:02:54.822Z,101137.15
2018-08-16T06:05:24.682Z,101133.08
2018-08-16T06:07:54.469Z,101131.33
2018-08-16T06:10:24.226Z,101127.31
2018-08-16T06:12:53.971Z,101121.02
2018-08-16T06:15:23.731Z,101120.44
2018-08-16T06:17:53.538Z,101112.05
2018-08-16T06:20:23.261Z,101112.36
2018-08-16T06:22:53.029Z,101114.30
2018-08-16T06:25:22.756Z,101112.44
2018-08-16T06:27:52.524Z,101113.94
2018-08-16T06:30:22.534Z,101107.29
2018-08-16T06:32:52.190Z,101109.51
2018-08-16T06:35:21.883Z,101103.85
2018-08-16T06:37:51.561Z,101103.12
2018-08-16T06:40:21.350Z,101103.73
2018-08-16T06:42:51.077Z,101099.71
2018-08-16T06:45:20.833Z,101104.84
2018-08-16T06:47:50.549Z,101096.16
2018-08-16T06:50:20.398Z,101099.30
2018-08-16T06:52:50.205Z,101104.50
2018-08-16T06:55:19.955Z,101104.45
2018-08-16T06:57:49.690Z,101101.78
2018-08-16T07:00:19.539Z,101104.52
2018-08-16T07:02:49.297Z,101097.66
2018-08-16T07:05:19.101Z,101095.14
2018-08-16T07:07:48.886Z,101092.84
2018-08-16T07:10:18.733Z,101088.22
2018-08-16T07:12:48.638Z,101091.60
2018-08-16T07:15:18.331Z,101087.66
2018-08-16T07:17:48.046Z,101087.55
2018-08-16T07:20:18.369Z,101091.37
2018-08-16T07:22:48.016Z,101089.38
2018-08-16T07:25:17.753Z,101081.47
2018-08-16T07:27:47.400Z,101092.23
2018-08-16T07:30:17.150Z,101093.64
2018-08-16T07:32:46.802Z,101089.42
2018-08-16T07:35:16.639Z,101091.64
2018-08-16T07:37:46.371Z,101085.17
2018-08-16T07:40:16.106Z,101090.38
2018-08-16T07:42:45.964Z,101085.89
2018-08-16T07:45:15.853Z,101087.85
2018-08-16T07:47:45.721Z,101085.70
2018-08-16T07:50:15.554Z,101084.11
2018-08-16T07:52:45.431Z,101087.96
2018-08-16T07:55:15.113Z,101088.74
2018-08-16T07:57:44.918Z,101084.72
2018-08-16T08:00:18.229Z,101093.70
2018-08-16T08:02:48.105Z,101089.65
2018-08-16T08:05:17.874Z,101093.69
2018-08-16T08:07:47.666Z,101094.87
2018-08-16T08:10:17.439Z,101088.60
2018-08-16T08:12:47.176Z,101089.61
2018-08-16T08:15:17.003Z,101084.44
2018-08-16T08:17:46.849Z,101091.23
2018-08-16T08:20:17.337Z,101087.16
2018-08-16T08:22:47.096Z,101086.22
2018-08-16T08:25:16.951Z,101088.07
2018-08-16T08:27:46.712Z,101089.41
2018-08-16T08:30:17.609Z,101092.22
2018-08-16T08:32:47.274Z,101086.35
2018-08-16T08:35:16.988Z,101091.52
2018-08-16T08:38:18.545Z,101088.11
2018-08-16T08:40:48.366Z,101089.14
2018-08-16T08:44:23.808Z,101087.02
2018-08-16T08:46:55.069Z,101081.08
2018-08-16T08:49:25.422Z,101083.28
2018-08-16T08:51:55.918Z,101083.55
2018-08-16T08:54:51.738Z,101076.48
2018-08-16T08:57:38.577Z,101069.75
2018-08-16T09:00:09.484Z,101067.41
2018-08-16T09:02:39.250Z,101062.30
2018-08-16T09:05:09.250Z,101069.27
2018-08-16T09:07:39.169Z,101065.06
2018-08-16T09:11:23.535Z,101064.69
2018-08-16T09:14:09.944Z,101057.76
2018-08-16T09:16:41.856Z,101055.98
2018-08-16T09:19:12.266Z,101053.98
2018-08-16T09:21:42.219Z,101053.23
2018-08-16T09:24:12.097Z,101042.52
2018-08-16T09:26:43.024Z,101039.63
2018-08-16T09:30:39.143Z,101043.75
2018-08-16T09:33:25.646Z,101041.05
2018-08-16T09:35:55.375Z,101030.59
2018-08-16T09:38:25.085Z,101036.16
2018-08-16T09:40:54.786Z,101033.84
2018-08-16T09:43:24.625Z,101026.45
2018-08-16T09:47:10.303Z,101029.66
2018-08-16T09:49:49.777Z,101029.40
2018-08-16T09:52:20.313Z,101022.31
2018-08-16T09:54:50.891Z,101015.58
2018-08-16T09:57:20.679Z,101010.48
2018-08-16T09:59:50.692Z,101016.97
2018-08-16T10:02:20.426Z,101007.64
2018-08-16T10:04:50.082Z,101001.30
2018-08-16T10:07:19.763Z,101003.11
2018-08-16T10:09:49.404Z,100999.20
2018-08-16T10:12:19.116Z,101002.20
2018-08-16T10:14:48.861Z,101001.33
2018-08-16T10:17:18.459Z,101007.89
2018-08-16T10:19:48.261Z,101006.05
2018-08-16T10:22:18.072Z,101001.73
2018-08-16T10:24:47.976Z,101000.06
2018-08-16T10:27:17.685Z,100995.30
2018-08-16T10:29:47.534Z,100988.84
2018-08-16T10:32:17.371Z,100986.47
2018-08-16T10:34:47.150Z,100977.23
2018-08-16T10:37:16.957Z,100978.76
2018-08-16T10:39:46.669Z,100984.62
2018-08-16T10:42:16.479Z,100984.91
2018-08-16T10:44:46.167Z,100980.13
2018-08-16T10:47:16.009Z,100970.41
2018-08-16T10:49:45.801Z,100975.77
2018-08-16T10:52:15.704Z,100971.27
2018-08-16T10:54:45.407Z,100962.93
2018-08-16T10:57:15.121Z,100964.38
2018-08-16T10:59:44.912Z,100960.09
2018-08-16T11:02:14.819Z,100964.30
2018-08-16T11:04:45.795Z,100960.99
2018-08-16T11:07:15.575Z,100961.45
2018-08-16T11:09:45.247Z,100956.32
2018-08-16T11:12:15.040Z,100949.40
2018-08-16T11:14:44.661Z,100956.86
2018-08-16T11:17:14.353Z,100951.20
2018-08-16T11:19:44.096Z,100947.18
2018-08-16T11:22:13.786Z,100949.80
2018-08-16T11:24:43.478Z,100946.31
2018-08-16T11:27:13.160Z,100946.67
2018-08-16T11:29:43.032Z,100942.86
2018-08-16T11:32:12.966Z,100943.52
2018-08-16T11:34:44.745Z,100944.94
2018-08-16T11:37:14.835Z,100933.09
2018-08-16T11:39:44.518Z,100931.44
2018-08-16T11:42:14.299Z,100931.98
2018-08-16T11:44:44.265Z,100935.95
2018-08-16T11:47:14.099Z,100929.05
2018-08-16T11:49:44.912Z,100929.32
2018-08-16T11:52:14.765Z,100928.23
2018-08-16T11:54:45.351Z,100919.80
2018-08-16T11:57:15.053Z,100921.39
2018-08-16T11:59:44.841Z,100912.77
2018-08-16T12:02:14.704Z,100913.16
2018-08-16T12:04:44.338Z,100909.42
2018-08-16T12:07:14.006Z,100911.95
2018-08-16T12:09:43.656Z,100902.17
2018-08-16T12:12:13.378Z,100894.16
2018-08-16T12:14:43.194Z,100894.17
2018-08-16T12:17:12.856Z,100891.00
2018-08-16T12:19:42.529Z,100892.84
2018-08-16T12:22:12.205Z,100888.05
2018-08-16T12:24:41.886Z,100883.42
2018-08-16T12:27:11.878Z,100889.52
2018-08-16T12:29:41.785Z,100882.66
2018-08-16T12:32:11.640Z,100875.19
2018-08-16T12:34:41.366Z,100871.53
2018-08-16T12:37:11.293Z,100867.45
2018-08-16T12:39:41.003Z,100860.87
2018-08-16T12:42:10.842Z,100862.63
2018-08-16T12:44:40.623Z,100860.82
2018-08-16T12:47:10.369Z,100856.83
2018-08-16T12:49:40.178Z,100848.93
2018-08-16T12:52:10.525Z,100850.34
2018-08-16T12:54:40.380Z,100848.02
2018-08-16T12:57:10.041Z,100840.25
2018-08-16T12:59:39.788Z,100837.05
2018-08-16T13:02:10.611Z,100836.52
2018-08-16T13:04:40.510Z,100835.84
2018-08-16T13:07:10.314Z,100832.20
2018-08-16T13:09:39.992Z,100830.95
2018-08-16T13:12:09.750Z,100820.69
2018-08-16T13:14:39.798Z,100823.02
2018-08-16T13:17:09.613Z,100821.76
2018-08-16T13:19:39.285Z,100815.12
2018-08-16T13:22:09.085Z,100819.44
2018-08-16T13:24:38.996Z,100814.23
2018-08-16T13:27:08.896Z,100816.43
2018-08-16T13:29:38.517Z,100810.36
2018-08-16T13:32:08.670Z,100812.87
2018-08-16T13:34:38.425Z,100813.58
2018-08-16T13:37:08.170Z,100809.48
2018-08-16T13:39:37.983Z,100802.13
2018-08-16T13:42:07.746Z,100798.59
2018-08-16T13:44:37.509Z,100793.37
2018-08-16T13:47:07.320Z,100789.77
2018-08-16T13:49:37.027Z,100790.22
2018-08-16T13:52:07.744Z,100778.98
2018-08-16T13:54:37.522Z,100782.59
2018-08-16T13:57:07.831Z,100781.76
2018-08-16T13:59:37.557Z,100769.69
2018-08-16T14:02:07.809Z,100775.75
2018-08-16T14:04:37.553Z,100768.05
2018-08-16T14:07:07.364Z,100761.60
2018-08-16T14:09:37.185Z,100764.06
2018-08-16T14:12:07.072Z,100764.42
2018-08-16T14:14:37.037Z,100760.95
2018-08-16T14:17:07.609Z,100760.99
2018-08-16T14:19:37.287Z,100753.77
2018-08-16T14:22:07.613Z,100762.45
2018-08-16T14:24:37.301Z,100756.84
2018-08-16T14:27:07.272Z,100757.75
2018-08-16T14:29:37.002Z,100758.64
2018-08-16T14:32:06.887Z,100749.73
2018-08-16T14:34:36.554Z,100754.45
2018-08-16T14:37:06.820Z,100755.95
2018-08-16T14:39:36.509Z,100751.96
2018-08-16T14:42:06.436Z,100745.56
2018-08-16T14:44:36.110Z,100747.56
2018-08-16T14:47:06.156Z,100741.61
2018-08-16T14:49:35.900Z,100738.68
2018-08-16T14:52:05.710Z,100741.11
2018-08-16T14:54:35.394Z,100736.50
2018-08-16T14:57:05.131Z,100731.36
2018-08-16T14:59:34.906Z,100732.31
2018-08-16T15:02:04.651Z,100723.23
2018-08-16T15:04:34.445Z,100725.78
2018-08-16T15:07:04.420Z,100724.02
2018-08-16T15:09:34.096Z,100724.47
2018-08-16T15:12:03.797Z,100719.75
2018-08-16T15:14:33.542Z,100720.46
2018-08-16T15:17:03.363Z,100713.97
2018-08-16T15:19:33.195Z,100715.46
2018-08-16T15:22:02.885Z,100717.48
2018-08-16T15:24:32.561Z,100712.73
2018-08-16T15:27:02.592Z,100720.22
2018-08-16T15:29:32.470Z,100715.86
2018-08-16T15:32:02.178Z,100712.02
2018-08-16T15:34:34.907Z,100713.20
2018-08-16T15:37:05.846Z,100712.42
2018-08-16T15:39:36.950Z,100711.66
2018-08-16T15:42:07.442Z,100709.45
2018-08-16T15:44:38.006Z,100702.45
2018-08-16T15:47:08.517Z,100704.52
2018-08-16T15:49:39.325Z,100698.52
2018-08-16T15:52:09.185Z,100702.72
2018-08-16T15:54:38.940Z,100690.54
2018-08-16T15:57:09.229Z,100691.96
2018-08-16T15:59:39.728Z,100698.58
2018-08-16T16:02:09.594Z,100691.58
2018-08-16T16:04:39.417Z,100689.38
2018-08-16T16:07:09.179Z,100691.45
2018-08-16T16:09:38.840Z,100697.57
2018-08-16T16:12:08.658Z,100696.33
2018-08-16T16:14:38.328Z,100689.00
2018-08-16T16:17:08.146Z,100680.84
2018-08-16T16:19:38.019Z,100683.11
2018-08-16T16:22:07.937Z,100677.14
2018-08-16T16:24:37.829Z,100681.58
2018-08-16T16:27:07.761Z,100672.97
2018-08-16T16:29:37.565Z,100667.79
2018-08-16T16:32:07.867Z,100676.64
2018-08-16T16:34:37.669Z,100675.76
2018-08-16T16:37:07.563Z,100675.23
2018-08-16T16:39:37.445Z,100670.78
2018-08-16T16:42:07.832Z,100670.51
2018-08-16T16:44:37.830Z,100668.23
2018-08-16T16:47:08.836Z,100668.33
2018-08-16T16:49:38.803Z,100671.41
2018-08-16T16:52:09.265Z,100667.22
2018-08-16T16:54:39.036Z,100663.67
2018-08-16T16:57:08.844Z,100663.62
2018-08-16T16:59:38.594Z,100662.44
2018-08-16T17:02:08.483Z,100662.88
2018-08-16T17:04:38.210Z,100664.91
2018-08-16T17:07:08.049Z,100656.59
2018-08-16T17:09:37.811Z,100663.84
2018-08-16T17:12:08.286Z,100663.09
2018-08-16T17:14:38.033Z,100661.16
2018-08-16T17:17:08.148Z,100660.60
2018-08-16T17:19:37.963Z,100661.33
2018-08-16T17:22:08.744Z,100659.14
2018-08-16T17:24:38.565Z,100656.75
2018-08-16T17:27:08.247Z,100661.09
2018-08-16T17:29:37.955Z,100659.53
2018-08-16T17:32:08.340Z,100662.90
2018-08-16T17:34:38.038Z,100666.98
2018-08-16T17:37:08.019Z,100662.70
2018-08-16T17:39:37.859Z,100660.34
2018-08-16T17:42:07.671Z,100660.62
2018-08-16T17:44:37.350Z,100657.37
2018-08-16T17:47:07.196Z,100654.56
2018-08-16T17:49:37.488Z,100656.34
2018-08-16T17:52:07.324Z,100660.68
2018-08-16T17:54:37.006Z,100657.78
2018-08-16T17:57:06.893Z,100663.50
2018-08-16T17:59:36.641Z,100667.05
2018-08-16T18:02:06.560Z,100664.25
2018-08-16T18:04:36.339Z,100662.25
2018-08-16T18:07:06.107Z,100658.93
2018-08-16T18:09:35.836Z,100660.43
2018-08-16T18:12:05.624Z,100659.58
2018-08-16T18:14:35.381Z,100664.63
2018-08-16T18:17:05.126Z,100667.37
2018-08-16T18:19:34.904Z,100663.44
2018-08-16T18:22:04.858Z,100663.16
2018-08-16T18:24:34.561Z,100659.41
2018-08-16T18:27:04.386Z,100658.75
2018-08-16T18:29:34.094Z,100663.18
2018-08-16T18:32:03.903Z,100667.89
2018-08-16T18:34:33.737Z,100666.78
2018-08-16T18:37:03.829Z,100668.47
2018-08-16T18:39:33.567Z,100674.78
2018-08-16T18:42:03.294Z,100677.71
2018-08-16T18:44:33.069Z,100680.69
2018-08-16T18:47:02.797Z,100675.42
2018-08-16T18:49:32.591Z,100679.95
2018-08-16T18:52:02.281Z,100683.59
2018-08-16T18:54:31.970Z,100684.00
2018-08-16T18:57:02.054Z,100687.84
2018-08-16T18:59:31.860Z,100684.58
2018-08-16T19:02:01.626Z,100688.18
2018-08-16T19:04:31.391Z,100692.58
2018-08-16T19:07:01.136Z,100691.48
2018-08-16T19:09:30.912Z,100693.61
2018-08-16T19:12:00.795Z,100701.76
2018-08-16T19:14:30.666Z,100700.44
2018-08-16T19:17:00.511Z,100691.09
2018-08-16T19:19:30.426Z,100696.28
2018-08-16T19:22:00.270Z,100709.45
2018-08-16T19:24:29.974Z,100706.52
2018-08-16T19:26:59.807Z,100714.71
2018-08-16T19:29:29.628Z,100710.36
2018-08-16T19:31:59.297Z,100714.77
2018-08-16T19:34:29.023Z,100719.30
2018-08-16T19:36:58.781Z,100718.28
2018-08-16T19:39:28.575Z,100721.13
2018-08-16T19:41:58.284Z,100714.11
2018-08-16T19:44:28.139Z,100716.76
2018-08-16T19:46:57.897Z,100715.93
2018-08-16T19:49:27.781Z,100712.48
2018-08-16T19:51:57.496Z,100707.16
2018-08-16T19:54:27.382Z,100707.20
2018-08-16T19:56:57.154Z,100709.58
2018-08-16T19:59:26.840Z,100712.91
2018-08-16T20:01:56.634Z,100707.87
2018-08-16T20:04:26.442Z,100705.02
2018-08-16T20:06:56.206Z,100702.38
2018-08-16T20:09:25.973Z,100702.88
2018-08-16T20:11:55.640Z,100708.96
2018-08-16T20:14:25.337Z,100704.69
2018-08-16T20:16:55.082Z,100707.94
2018-08-16T20:19:24.841Z,100710.50
2018-08-16T20:21:54.545Z,100711.20
2018-08-16T20:24:24.238Z,100710.46
2018-08-16T20:26:54.002Z,100711.69
2018-08-16T20:29:23.881Z,100708.83
2018-08-16T20:31:53.587Z,100713.42
2018-08-16T20:34:23.313Z,100719.28
2018-08-16T20:36:53.785Z,100717.30
2018-08-16T20:39:23.484Z,100716.67
2018-08-16T20:41:53.273Z,100721.97
2018-08-16T20:44:23.040Z,100719.56
2018-08-16T20:46:52.782Z,100722.90
2018-08-16T20:49:22.537Z,100723.06
2018-08-16T20:51:55.481Z,100727.34
2018-08-16T20:54:27.553Z,100724.13
2018-08-16T20:56:57.286Z,100719.52
2018-08-16T20:59:26.975Z,100716.39
2018-08-16T21:01:56.611Z,100719.42
2018-08-16T21:04:26.366Z,100715.52
2018-08-16T21:06:56.133Z,100716.52
2018-08-16T21:09:25.825Z,100722.38
2018-08-16T21:11:55.604Z,100723.20
2018-08-16T21:14:25.678Z,100725.13
2018-08-16T21:16:55.582Z,100726.19
2018-08-16T21:19:25.423Z,100737.17
2018-08-16T21:21:55.143Z,100734.48
2018-08-16T21:24:24.972Z,100736.56
2018-08-16T21:26:54.663Z,100736.91
2018-08-16T21:29:24.364Z,100735.94
2018-08-16T21:31:54.109Z,100738.77
2018-08-16T21:34:23.819Z,100741.34
2018-08-16T21:36:54.054Z,100740.30
2018-08-16T21:39:24.808Z,100745.28
2018-08-16T21:41:54.457Z,100742.75
2018-08-16T21:44:24.175Z,100746.52
2018-08-16T21:46:53.913Z,100744.38
2018-08-16T21:49:23.634Z,100743.80
2018-08-16T21:51:53.340Z,100743.80
2018-08-16T21:54:23.013Z,100746.11
2018-08-16T21:56:52.845Z,100747.61
2018-08-16T21:59:22.624Z,100742.98
2018-08-16T22:01:52.396Z,100746.27
2018-08-16T22:04:22.307Z,100746.48
2018-08-16T22:07:05.120Z,100754.91
2018-08-16T22:09:34.968Z,100747.25
2018-08-16T22:12:04.784Z,100746.56
2018-08-16T22:14:34.495Z,100744.61
2018-08-16T22:17:04.258Z,100746.38
2018-08-16T22:19:34.029Z,100750.39
2018-08-16T22:22:03.840Z,100742.20
2018-08-16T22:24:33.646Z,100742.09
2018-08-16T22:27:03.462Z,100738.23
2018-08-16T22:29:33.244Z,100732.44
2018-08-16T22:32:02.939Z,100730.61
2018-08-16T22:34:32.830Z,100731.64
2018-08-16T22:37:02.659Z,100735.50
2018-08-16T22:39:32.502Z,100735.50
2018-08-16T22:42:02.299Z,100740.09
2018-08-16T22:44:32.191Z,100740.86
2018-08-16T22:47:02.742Z,100737.27
2018-08-16T22:49:32.518Z,100743.27
2018-08-16T22:52:02.387Z,100747.28
2018-08-16T22:54:32.531Z,100741.27
2018-08-16T22:57:03.710Z,100744.30
2018-08-16T22:59:34.442Z,100747.68
2018-08-16T23:02:04.651Z,100740.50
2018-08-16T23:04:34.579Z,100747.58
2018-08-16T23:07:07.799Z,100743.47
2018-08-16T23:09:38.129Z,100744.17
2018-08-16T23:12:09.342Z,100747.30
2018-08-16T23:14:40.353Z,100742.38
2018-08-16T23:17:11.736Z,100735.25
2018-08-16T23:19:43.245Z,100737.20
2018-08-16T23:22:13.882Z,100733.70
2018-08-16T23:24:43.735Z,100733.83
2018-08-16T23:27:13.542Z,100730.16
2018-08-16T23:29:43.221Z,100730.73
2018-08-16T23:32:12.890Z,100724.77
2018-08-16T23:34:42.592Z,100717.36
2018-08-16T23:37:12.305Z,100728.36
2018-08-16T23:39:42.049Z,100723.25
2018-08-16T23:42:11.782Z,100714.75
2018-08-16T23:44:41.494Z,100720.58
2018-08-16T23:47:11.485Z,100715.51
2018-08-16T23:49:41.946Z,100711.92
2018-08-16T23:52:12.435Z,100718.14
2018-08-16T23:54:42.244Z,100717.38
2018-08-16T23:57:11.995Z,100720.12
2018-08-16T23:59:42.592Z,100715.50
